Time;durP1;ratioP1;P1;durP2;ratioP2;P2;SDS_P1;SDS_P2;PMS_P1;PMS_P2;Temp;Humidity;BMP_temperature;BMP_pressure;BME280_temperature;BME280_humidity;BME280_pressure;Samples;Min_cycle;Max_cycle;Signal;HPM_P1;HPM_P2
2022/04/06 00:02:15;;;;;;;15.20;13.60;;;9.50;99.90;;;;;;5110312;28;20477;-79
2022/04/06 00:04:43;;;;;;;15.83;14.17;;;9.50;99.90;;;;;;5110102;28;20459;-80
2022/04/06 00:07:13;;;;;;;16.27;13.80;;;9.50;99.90;;;;;;5109969;28;20896;-80
2022/04/06 00:09:42;;;;;;;14.50;13.10;;;9.50;99.90;;;;;;5119431;28;20546;-80
2022/04/06 00:12:10;;;;;;;18.93;13.83;;;9.50;99.90;;;;;;5110396;28;20959;-80
2022/04/06 00:14:40;;;;;;;16.37;14.67;;;9.50;99.90;;;;;;5109646;28;20816;-80
2022/04/06 00:17:10;;;;;;;15.57;13.93;;;9.50;99.90;;;;;;5109772;28;20932;-80
2022/04/06 00:19:38;;;;;;;14.37;12.87;;;9.50;99.90;;;;;;5112684;28;20443;-80
2022/04/06 00:22:07;;;;;;;16.23;14.03;;;9.50;99.90;;;;;;5110937;28;20452;-80
2022/04/06 00:24:37;;;;;;;15.80;14.17;;;9.50;99.90;;;;;;5128934;28;20482;-80
2022/04/06 00:27:06;;;;;;;14.50;13.10;;;9.50;99.90;;;;;;5129844;28;20986;-80
2022/04/06 00:29:34;;;;;;;19.93;14.90;;;9.50;99.90;;;;;;5130028;28;20453;-80
2022/04/06 00:32:03;;;;;;;14.90;13.37;;;9.50;99.90;;;;;;5118238;28;20478;-79
2022/04/06 00:37:17;;;;;;;17.47;14.87;;;9.50;99.90;;;;;;5109544;28;20455;-79
2022/04/06 00:39:47;;;;;;;15.47;13.87;;;9.50;99.90;;;;;;5109827;28;20440;-79
2022/04/06 00:42:15;;;;;;;16.30;14.73;;;9.40;99.90;;;;;;5109537;28;20448;-79
2022/04/06 00:44:44;;;;;;;17.57;14.33;;;9.40;99.90;;;;;;5137724;27;20486;-79
2022/04/06 00:47:12;;;;;;;15.77;14.10;;;9.40;99.90;;;;;;5109633;28;20471;-79
2022/04/06 00:49:40;;;;;;;16.47;14.77;;;9.40;99.90;;;;;;5109766;28;20447;-79
2022/04/06 00:52:09;;;;;;;17.83;16.03;;;9.40;99.90;;;;;;5109318;28;20452;-79
2022/04/06 00:54:39;;;;;;;17.60;15.70;;;9.40;99.90;;;;;;5110742;28;20436;-79
2022/04/06 00:57:09;;;;;;;18.43;16.73;;;9.40;99.90;;;;;;5109296;28;20448;-79
2022/04/06 00:59:38;;;;;;;16.93;15.20;;;9.40;99.90;;;;;;5109796;28;20518;-79
2022/04/06 01:02:07;;;;;;;18.60;16.70;;;9.40;99.90;;;;;;5109500;28;20462;-79
2022/04/06 01:04:35;;;;;;;19.97;17.10;;;9.40;99.90;;;;;;5109396;28;20467;-79
2022/04/06 01:07:04;;;;;;;19.20;17.30;;;9.30;99.90;;;;;;5127771;28;20459;-79
2022/04/06 01:09:33;;;;;;;19.97;18.07;;;9.30;99.90;;;;;;5129571;28;20469;-80
2022/04/06 01:12:03;;;;;;;22.47;17.13;;;9.30;99.90;;;;;;5124475;28;20937;-79
2022/04/06 01:14:33;;;;;;;21.10;17.80;;;9.30;99.90;;;;;;5109806;28;20944;-79
2022/04/06 01:17:04;;;;;;;19.77;17.73;;;9.30;99.90;;;;;;5110923;28;20417;-79
2022/04/06 01:19:34;;;;;;;20.37;18.27;;;9.30;99.90;;;;;;5109373;28;20863;-79
2022/04/06 01:22:02;;;;;;;20.10;18.00;;;9.30;99.90;;;;;;5109938;28;20447;-79
2022/04/06 01:24:32;;;;;;;21.87;19.17;;;9.30;99.90;;;;;;5108428;28;20452;-79
2022/04/06 01:27:02;;;;;;;21.20;19.00;;;9.30;99.90;;;;;;5110421;28;20463;-79
2022/04/06 01:29:31;;;;;;;21.70;19.40;;;9.30;99.90;;;;;;5110724;28;20447;-79
2022/04/06 01:32:09;;;;;;;24.53;20.47;;;9.30;99.90;;;;;;5130729;28;20467;-79
2022/04/06 01:34:38;;;;;;;22.13;20.03;;;9.30;99.90;;;;;;5130541;28;20419;-79
2022/04/06 01:37:07;;;;;;;24.10;21.60;;;9.30;99.90;;;;;;5128766;28;20522;-80
2022/04/06 01:39:38;;;;;;;24.90;21.23;;;9.30;99.90;;;;;;5129908;28;20492;-80
2022/04/06 01:42:09;;;;;;;25.23;21.63;;;9.30;99.90;;;;;;5128796;28;20443;-79
2022/04/06 01:44:37;;;;;;;25.53;21.37;;;9.30;99.90;;;;;;5128763;28;20443;-80
2022/04/06 01:47:08;;;;;;;26.50;23.53;;;9.30;99.90;;;;;;5114894;28;20463;-79
2022/04/06 01:52:23;;;;;;;25.10;22.40;;;9.30;99.90;;;;;;5124903;28;20526;-80
2022/04/06 01:54:55;;;;;;;30.20;23.67;;;9.30;99.90;;;;;;5128492;28;20476;-79
2022/04/06 01:57:24;;;;;;;25.43;22.57;;;9.30;99.90;;;;;;5128931;28;20439;-80
2022/04/06 01:59:52;;;;;;;29.00;24.70;;;9.30;99.90;;;;;;5128394;28;20439;-80
2022/04/06 02:02:22;;;;;;;28.13;23.70;;;9.30;99.90;;;;;;5129329;28;20511;-80
2022/04/06 02:04:50;;;;;;;32.20;26.83;;;9.30;99.90;;;;;;5124128;28;20482;-80
2022/04/06 02:07:18;;;;;;;27.13;24.23;;;9.30;99.90;;;;;;5108873;28;20448;-79
2022/04/06 02:09:47;;;;;;;27.47;24.80;;;9.30;99.90;;;;;;5118198;28;20459;-79
2022/04/06 02:12:16;;;;;;;31.03;27.60;;;9.30;99.90;;;;;;5127569;28;20455;-79
2022/04/06 02:14:45;;;;;;;32.30;27.60;;;9.30;99.90;;;;;;5128481;28;20792;-79
2022/04/06 02:17:13;;;;;;;31.70;28.40;;;9.40;99.90;;;;;;5128203;28;20452;-79
2022/04/06 02:19:41;;;;;;;31.53;28.17;;;9.40;99.90;;;;;;5120398;28;20494;-79
2022/04/06 02:22:10;;;;;;;35.87;30.20;;;9.40;99.90;;;;;;5107543;28;20858;-79
2022/04/06 02:24:39;;;;;;;33.77;30.17;;;9.40;99.90;;;;;;5106899;28;20542;-79
2022/04/06 02:27:08;;;;;;;33.83;30.23;;;9.40;99.90;;;;;;5109770;28;20447;-79
2022/04/06 02:29:39;;;;;;;36.63;32.73;;;9.40;99.90;;;;;;5107185;28;20486;-80
2022/04/06 02:32:09;;;;;;;35.73;32.10;;;9.40;99.90;;;;;;5124681;28;20469;-79
2022/04/06 02:34:39;;;;;;;34.80;31.07;;;9.40;99.90;;;;;;5117153;28;20460;-79
2022/04/06 02:37:08;;;;;;;34.50;30.97;;;9.40;99.90;;;;;;5107374;28;20455;-80
2022/04/06 02:39:37;;;;;;;34.50;31.07;;;9.40;99.90;;;;;;5107537;28;20429;-80
2022/04/06 02:42:06;;;;;;;37.47;33.40;;;9.40;99.90;;;;;;5107534;28;20470;-80
2022/04/06 02:44:34;;;;;;;35.67;31.90;;;9.40;99.90;;;;;;5107319;28;20447;-80
2022/04/06 02:47:05;;;;;;;36.23;32.50;;;9.40;99.90;;;;;;5109269;28;20440;-80
2022/04/06 02:49:33;;;;;;;35.63;31.97;;;9.40;99.90;;;;;;5128014;28;20895;-80
2022/04/06 02:52:01;;;;;;;34.27;30.70;;;9.40;99.90;;;;;;5113640;28;20451;-80
2022/04/06 02:54:30;;;;;;;35.40;29.10;;;9.40;99.90;;;;;;5111028;28;20447;-80
2022/04/06 02:56:58;;;;;;;34.60;30.90;;;9.40;99.90;;;;;;5111742;28;20522;-80
2022/04/06 02:59:26;;;;;;;31.60;28.20;;;9.40;99.90;;;;;;5111195;28;20440;-80
2022/04/06 03:01:55;;;;;;;33.30;29.77;;;9.40;99.90;;;;;;5117467;28;20449;-80
2022/04/06 03:04:25;;;;;;;33.40;28.80;;;9.40;99.90;;;;;;5131975;28;20493;-82
2022/04/06 03:06:53;;;;;;;33.03;28.63;;;9.50;99.90;;;;;;5132702;28;20526;-80
2022/04/06 03:09:21;;;;;;;34.30;27.47;;;9.40;99.90;;;;;;5130297;28;20460;-80
2022/04/06 03:11:49;;;;;;;34.27;27.20;;;9.40;99.90;;;;;;5131818;28;20447;-80
2022/04/06 03:14:18;;;;;;;32.07;25.70;;;9.50;99.90;;;;;;5121735;28;20511;-80
2022/04/06 03:16:46;;;;;;;33.30;26.70;;;9.50;99.90;;;;;;5131126;28;20471;-80
2022/04/06 03:19:14;;;;;;;30.43;26.10;;;9.50;99.90;;;;;;5131721;28;20458;-80
2022/04/06 03:21:44;;;;;;;30.67;25.90;;;9.50;99.90;;;;;;5130714;28;20435;-80
2022/04/06 03:24:12;;;;;;;34.67;27.50;;;9.50;99.90;;;;;;5131732;28;20443;-80
2022/04/06 03:26:40;;;;;;;28.70;25.07;;;9.40;99.90;;;;;;5131342;28;20567;-80
2022/04/06 03:29:09;;;;;;;28.93;25.23;;;9.50;99.90;;;;;;5130944;28;20475;-80
2022/04/06 03:31:37;;;;;;;32.13;24.60;;;9.50;99.90;;;;;;5109976;28;20456;-79
2022/04/06 03:34:06;;;;;;;26.93;24.07;;;9.50;99.90;;;;;;5110042;28;20452;-80
2022/04/06 03:36:34;;;;;;;27.80;23.47;;;9.50;99.90;;;;;;5109987;28;20463;-80
2022/04/06 03:39:04;;;;;;;27.27;23.57;;;9.50;99.90;;;;;;5108852;28;20477;-80
2022/04/06 03:41:32;;;;;;;27.67;22.90;;;9.50;99.90;;;;;;5110511;28;20448;-79
2022/04/06 03:44:00;;;;;;;25.40;22.70;;;9.50;99.90;;;;;;5110149;28;20474;-80
2022/04/06 03:46:29;;;;;;;29.80;22.90;;;9.50;99.90;;;;;;5109304;28;20468;-80
2022/04/06 03:48:57;;;;;;;27.00;22.10;;;9.50;99.90;;;;;;5110838;28;20863;-80
2022/04/06 03:51:25;;;;;;;27.67;22.37;;;9.50;99.90;;;;;;5109095;28;20452;-80
2022/04/06 03:53:54;;;;;;;28.30;23.17;;;9.50;99.90;;;;;;5120332;28;20541;-80
2022/04/06 03:56:23;;;;;;;26.10;21.50;;;9.50;99.90;;;;;;5129653;28;20455;-80
2022/04/06 03:58:52;;;;;;;26.83;22.63;;;9.50;99.90;;;;;;5110934;28;20467;-80
2022/04/06 04:01:20;;;;;;;24.23;21.63;;;9.50;99.90;;;;;;5108935;28;20527;-80
2022/04/06 04:03:49;;;;;;;30.43;23.70;;;9.50;99.90;;;;;;5109197;28;20475;-80
2022/04/06 04:06:17;;;;;;;24.00;21.40;;;9.50;99.90;;;;;;5108829;28;20469;-80
2022/04/06 04:08:45;;;;;;;24.30;21.63;;;9.50;99.90;;;;;;5109277;28;20495;-80
2022/04/06 04:11:13;;;;;;;24.07;20.77;;;9.60;99.90;;;;;;5110076;28;20458;-80
2022/04/06 04:13:43;;;;;;;25.60;21.03;;;9.60;99.90;;;;;;5108100;28;20452;-80
2022/04/06 04:16:11;;;;;;;25.17;20.93;;;9.60;99.90;;;;;;5108800;28;20467;-80
2022/04/06 04:18:39;;;;;;;24.60;21.13;;;9.60;99.90;;;;;;5109539;28;20451;-80
2022/04/06 04:23:54;;;;;;;23.80;21.00;;;9.60;99.90;;;;;;5108317;28;20440;-80
2022/04/06 04:26:22;;;;;;;24.17;20.20;;;9.60;99.90;;;;;;5108323;28;20460;-80
2022/04/06 04:28:52;;;;;;;23.60;19.97;;;9.60;99.90;;;;;;5108668;28;20468;-80
2022/04/06 04:31:20;;;;;;;23.57;20.70;;;9.60;99.90;;;;;;5108395;28;20988;-80
2022/04/06 04:33:48;;;;;;;22.53;19.53;;;9.60;99.90;;;;;;5109491;28;20484;-80
2022/04/06 04:36:17;;;;;;;24.33;21.67;;;9.60;99.90;;;;;;5108727;28;20494;-80
2022/04/06 04:38:45;;;;;;;25.00;19.90;;;9.60;99.90;;;;;;5108402;28;20447;-81
2022/04/06 04:41:13;;;;;;;27.80;22.10;;;9.60;99.90;;;;;;5108923;28;20482;-80
2022/04/06 04:43:42;;;;;;;21.70;19.27;;;9.60;99.90;;;;;;5108359;28;20440;-80
2022/04/06 04:46:12;;;;;;;27.13;20.50;;;9.60;99.90;;;;;;5109488;28;20463;-80
2022/04/06 04:48:40;;;;;;;27.13;19.90;;;9.60;99.90;;;;;;5107361;28;20448;-80
2022/04/06 04:51:08;;;;;;;26.63;20.97;;;9.60;99.90;;;;;;5107772;28;20448;-80
2022/04/06 04:53:36;;;;;;;23.70;20.77;;;9.60;99.90;;;;;;5108123;28;20474;-80
2022/04/06 04:56:05;;;;;;;22.40;19.70;;;9.60;99.90;;;;;;5109187;28;20471;-80
2022/04/06 04:58:33;;;;;;;23.13;20.53;;;9.60;99.90;;;;;;5107337;28;20494;-79
2022/04/06 05:01:01;;;;;;;22.70;19.90;;;9.50;99.90;;;;;;5107830;28;20476;-80
2022/04/06 05:03:31;;;;;;;25.93;20.90;;;9.50;99.90;;;;;;5108741;28;20480;-80
2022/04/06 05:05:59;;;;;;;24.03;21.50;;;9.50;99.90;;;;;;5108077;28;20980;-79
2022/04/06 05:08:28;;;;;;;24.30;20.17;;;9.50;99.90;;;;;;5108208;28;20509;-80
2022/04/06 05:10:56;;;;;;;24.30;19.50;;;9.50;99.90;;;;;;5108266;28;20472;-80
2022/04/06 05:13:24;;;;;;;23.00;20.60;;;9.50;99.90;;;;;;5108775;28;20472;-80
2022/04/06 05:15:56;;;;;;;24.37;20.40;;;9.50;99.90;;;;;;5108524;28;20547;-80
2022/04/06 05:18:25;;;;;;;23.80;21.47;;;9.50;99.90;;;;;;5107317;28;20541;-79
2022/04/06 05:20:56;;;;;;;28.60;21.77;;;9.50;99.90;;;;;;5109548;28;20432;-80
2022/04/06 05:23:25;;;;;;;24.80;21.97;;;9.50;99.90;;;;;;5107970;28;20474;-81
2022/04/06 05:25:54;;;;;;;25.20;22.60;;;9.50;99.90;;;;;;5108757;28;20602;-79
2022/04/06 05:28:22;;;;;;;26.63;23.93;;;9.50;99.90;;;;;;5108360;28;20562;-80
2022/04/06 05:30:51;;;;;;;26.90;23.10;;;9.50;99.90;;;;;;5108214;28;20474;-80
2022/04/06 05:33:19;;;;;;;26.47;23.80;;;9.50;99.90;;;;;;5107628;28;20444;-80
2022/04/06 05:35:48;;;;;;;28.33;24.33;;;9.50;99.90;;;;;;5109360;28;20475;-79
2022/04/06 05:38:18;;;;;;;26.70;23.90;;;9.50;99.90;;;;;;5109465;28;20449;-80
2022/04/06 05:40:46;;;;;;;27.67;24.10;;;9.50;99.90;;;;;;5109078;28;20553;-79
2022/04/06 05:43:14;;;;;;;26.97;24.10;;;9.60;99.90;;;;;;5108879;28;20461;-80
2022/04/06 05:45:43;;;;;;;28.77;25.13;;;9.60;99.90;;;;;;5107220;28;20886;-80
2022/04/06 05:48:11;;;;;;;29.70;26.17;;;9.60;99.90;;;;;;5107517;28;20519;-80
2022/04/06 05:50:39;;;;;;;28.07;25.13;;;9.60;99.90;;;;;;5107352;28;20467;-80
2022/04/06 05:53:08;;;;;;;27.80;24.90;;;9.60;99.90;;;;;;5107474;28;20482;-80
2022/04/06 05:55:38;;;;;;;28.97;24.87;;;9.60;99.90;;;;;;5107791;28;21006;-79
2022/04/06 05:58:07;;;;;;;30.03;26.83;;;9.60;99.90;;;;;;5109194;28;20823;-79
2022/04/06 06:00:36;;;;;;;27.83;25.03;;;9.60;99.90;;;;;;5107458;28;20444;-79
2022/04/06 06:03:05;;;;;;;31.37;28.17;;;9.60;99.90;;;;;;5109033;28;20458;-79
2022/04/06 06:05:33;;;;;;;28.90;26.13;;;9.60;99.90;;;;;;5107786;28;20468;-79
2022/04/06 06:08:01;;;;;;;30.57;27.57;;;9.60;99.90;;;;;;5107893;28;20462;-79
2022/04/06 06:10:29;;;;;;;30.13;27.07;;;9.60;99.90;;;;;;5108786;28;20475;-79
2022/04/06 06:13:00;;;;;;;32.37;28.73;;;9.60;99.90;;;;;;5108841;28;20436;-79
2022/04/06 06:15:28;;;;;;;31.63;28.30;;;9.60;99.90;;;;;;5108769;28;20472;-79
2022/04/06 06:17:56;;;;;;;31.77;28.40;;;9.60;99.90;;;;;;5107758;28;20887;-79
2022/04/06 06:20:26;;;;;;;32.87;29.23;;;9.60;99.90;;;;;;5109306;28;20476;-80
2022/04/06 06:22:58;;;;;;;30.97;28.00;;;9.60;99.90;;;;;;5107821;28;20519;-79
2022/04/06 06:25:26;;;;;;;30.20;27.20;;;9.60;99.90;;;;;;5106325;28;20501;-79
2022/04/06 06:27:55;;;;;;;30.57;27.27;;;9.60;99.90;;;;;;5106975;28;20448;-79
2022/04/06 06:30:26;;;;;;;29.37;26.57;;;9.70;99.90;;;;;;5110993;28;20460;-79
2022/04/06 06:32:56;;;;;;;29.60;26.50;;;9.70;99.90;;;;;;5109702;28;20470;-79
2022/04/06 06:35:25;;;;;;;28.00;25.20;;;9.70;99.90;;;;;;5109479;28;20463;-79
2022/04/06 06:37:57;;;;;;;29.23;26.17;;;9.70;99.90;;;;;;5109814;28;20475;-79
2022/04/06 06:40:28;;;;;;;30.07;27.13;;;9.70;99.90;;;;;;5109617;28;20464;-79
2022/04/06 06:42:56;;;;;;;28.50;25.90;;;9.80;99.90;;;;;;5110681;28;20527;-79
2022/04/06 06:45:26;;;;;;;29.30;26.43;;;9.80;99.90;;;;;;5111117;28;20468;-79
2022/04/06 06:47:56;;;;;;;28.93;25.90;;;9.80;99.90;;;;;;5108992;28;20448;-79
2022/04/06 06:50:24;;;;;;;26.80;23.77;;;9.80;99.90;;;;;;5108984;28;20536;-79
2022/04/06 06:52:52;;;;;;;26.97;24.07;;;9.80;99.90;;;;;;5108977;28;20487;-79
2022/04/06 06:55:22;;;;;;;27.13;24.30;;;9.90;99.90;;;;;;5108399;28;20495;-79
2022/04/06 06:57:50;;;;;;;25.60;23.00;;;9.90;99.90;;;;;;5108715;28;20475;-79
2022/04/06 07:00:20;;;;;;;26.50;22.67;;;9.90;99.90;;;;;;5108100;28;20444;-79
2022/04/06 07:02:49;;;;;;;23.53;21.17;;;10.00;99.90;;;;;;5107096;28;20439;-80
2022/04/06 07:05:17;;;;;;;22.80;20.37;;;10.00;99.90;;;;;;5105602;28;20558;-79
2022/04/06 07:07:52;;;;;;;22.70;20.30;;;10.00;99.90;;;;;;5105145;28;20464;-79
2022/04/06 07:10:21;;;;;;;22.80;20.40;;;10.00;99.90;;;;;;5105505;28;20466;-79
2022/04/06 07:12:50;;;;;;;24.00;18.47;;;10.10;99.90;;;;;;5107588;28;20447;-79
2022/04/06 07:15:19;;;;;;;20.67;18.33;;;10.10;99.90;;;;;;5105387;28;20472;-79
2022/04/06 07:17:53;;;;;;;18.43;16.73;;;10.10;99.90;;;;;;5105331;28;20474;-80
2022/04/06 07:20:21;;;;;;;24.07;18.60;;;10.20;99.90;;;;;;5106105;28;20421;-79
2022/04/06 07:22:50;;;;;;;18.03;16.30;;;10.20;99.90;;;;;;5106009;28;20493;-79
2022/04/06 07:25:19;;;;;;;17.30;15.67;;;10.20;99.90;;;;;;5104850;28;20558;-79
2022/04/06 07:27:47;;;;;;;16.63;15.13;;;10.20;99.90;;;;;;5104939;28;20472;-79
2022/04/06 07:30:16;;;;;;;16.30;14.10;;;10.30;99.90;;;;;;5104301;28;20476;-79
2022/04/06 07:32:45;;;;;;;16.17;14.67;;;10.30;99.90;;;;;;5103217;28;20477;-79
2022/04/06 07:35:15;;;;;;;14.97;13.43;;;10.40;99.90;;;;;;5103757;28;20485;-79
2022/04/06 07:37:45;;;;;;;15.10;13.50;;;10.40;99.90;;;;;;5105004;28;20470;-79
2022/04/06 07:40:15;;;;;;;14.20;12.70;;;10.50;99.90;;;;;;5102058;28;20556;-79
2022/04/06 07:42:43;;;;;;;16.80;13.67;;;10.50;99.90;;;;;;5102534;28;20440;-79
2022/04/06 07:45:14;;;;;;;12.97;11.57;;;10.50;99.90;;;;;;5102056;28;20464;-79
2022/04/06 07:47:43;;;;;;;12.40;11.10;;;10.50;99.90;;;;;;5101715;28;20472;-79
2022/04/06 07:50:13;;;;;;;11.87;10.63;;;10.50;99.90;;;;;;5102279;28;20480;-79
2022/04/06 07:52:43;;;;;;;14.93;11.50;;;10.50;99.90;;;;;;5105167;28;20456;-79
2022/04/06 07:55:13;;;;;;;11.90;9.30;;;10.50;99.90;;;;;;5103535;28;20571;-79
2022/04/06 07:57:42;;;;;;;10.10;9.07;;;10.50;99.90;;;;;;5104253;28;20889;-79
2022/04/06 08:00:13;;;;;;;11.20;9.10;;;10.50;99.90;;;;;;5101589;28;20502;-79
2022/04/06 08:02:41;;;;;;;10.50;9.40;;;10.50;99.90;;;;;;5103310;28;20440;-79
2022/04/06 08:05:10;;;;;;;12.90;9.07;;;10.50;99.90;;;;;;5102924;28;20468;-79
2022/04/06 08:07:43;;;;;;;9.77;8.27;;;10.50;99.90;;;;;;5103746;28;20490;-79
2022/04/06 08:10:14;;;;;;;9.50;7.53;;;10.50;99.90;;;;;;5102657;28;20416;-79
2022/04/06 08:12:43;;;;;;;8.93;7.53;;;10.50;99.90;;;;;;5100800;28;20459;-79
2022/04/06 08:15:12;;;;;;;15.27;9.00;;;10.50;99.90;;;;;;5100340;28;20479;-79
2022/04/06 08:17:42;;;;;;;9.80;8.30;;;10.60;99.90;;;;;;5101287;28;20455;-80
2022/04/06 08:20:12;;;;;;;9.67;7.30;;;10.60;99.90;;;;;;5100461;28;20462;-79
2022/04/06 08:22:45;;;;;;;7.80;7.00;;;10.60;99.90;;;;;;5100515;28;20428;-79
2022/04/06 08:25:15;;;;;;;9.40;6.80;;;10.60;99.90;;;;;;5099989;28;20473;-79
2022/04/06 08:28:04;;;;;;;9.10;6.83;;;10.60;99.90;;;;;;5100888;28;20991;-79
2022/04/06 08:30:47;;;;;;;10.63;7.67;;;10.60;99.90;;;;;;5100563;28;20478;-79
2022/04/06 08:33:23;;;;;;;8.33;6.47;;;10.70;99.90;;;;;;5101758;28;20432;-79
2022/04/06 08:36:06;;;;;;;9.07;8.17;;;10.70;99.90;;;;;;5099711;28;20472;-79
2022/04/06 08:38:34;;;;;;;8.10;6.80;;;10.70;99.90;;;;;;5104801;28;20455;-79
2022/04/06 08:41:19;;;;;;;10.70;6.97;;;10.70;99.90;;;;;;5104937;28;20437;-80
2022/04/06 08:43:48;;;;;;;9.30;8.00;;;10.70;99.90;;;;;;5103641;28;20432;-79
2022/04/06 08:46:16;;;;;;;8.70;7.67;;;10.70;99.90;;;;;;5103382;28;20532;-80
2022/04/06 08:48:49;;;;;;;11.03;8.00;;;10.70;99.90;;;;;;5105445;28;20492;-80
2022/04/06 08:51:17;;;;;;;8.53;7.70;;;10.70;99.90;;;;;;5104368;28;20500;-79
2022/04/06 08:53:47;;;;;;;9.00;8.17;;;10.70;99.90;;;;;;5103483;28;20532;-79
2022/04/06 08:56:17;;;;;;;7.93;7.23;;;10.70;99.90;;;;;;5106669;28;20456;-80
2022/04/06 08:58:45;;;;;;;8.30;7.30;;;10.70;99.90;;;;;;5106765;28;20460;-80
2022/04/06 09:01:13;;;;;;;9.60;8.00;;;10.70;99.90;;;;;;5101621;28;21018;-80
2022/04/06 09:03:44;;;;;;;9.23;7.93;;;10.70;99.90;;;;;;5100905;28;20447;-80
2022/04/06 09:06:13;;;;;;;8.40;7.60;;;10.70;99.90;;;;;;5100883;28;20464;-80
2022/04/06 09:08:44;;;;;;;11.60;8.30;;;10.70;99.90;;;;;;5101889;28;20495;-83
2022/04/06 09:11:14;;;;;;;8.80;7.90;;;10.70;99.90;;;;;;5100750;28;20870;-80
2022/04/06 09:13:45;;;;;;;9.27;8.27;;;10.70;99.90;;;;;;5100866;28;20440;-79
2022/04/06 09:16:16;;;;;;;9.87;8.03;;;10.70;99.90;;;;;;5098234;28;20551;-79
2022/04/06 09:18:46;;;;;;;9.30;8.50;;;10.70;99.90;;;;;;5099239;28;20432;-78
2022/04/06 09:21:17;;;;;;;11.57;9.53;;;10.70;99.90;;;;;;5096823;28;20887;-79
2022/04/06 09:23:48;;;;;;;9.53;8.63;;;10.70;99.90;;;;;;5097305;28;20448;-79
2022/04/06 09:26:20;;;;;;;10.33;9.40;;;10.70;99.90;;;;;;5097106;28;20468;-78
2022/04/06 09:28:50;;;;;;;10.10;8.90;;;10.70;99.90;;;;;;5097676;28;20481;-79
2022/04/06 09:31:20;;;;;;;10.80;9.17;;;10.80;99.90;;;;;;5097060;28;20456;-78
2022/04/06 09:33:57;;;;;;;10.70;9.70;;;10.80;99.90;;;;;;5097470;28;20448;-80
2022/04/06 09:36:28;;;;;;;10.40;9.50;;;10.90;99.90;;;;;;5098669;28;20525;-79
2022/04/06 09:38:57;;;;;;;10.40;9.40;;;10.90;99.90;;;;;;5098604;28;20443;-79
2022/04/06 09:41:26;;;;;;;11.20;9.63;;;10.90;99.90;;;;;;5096917;28;20440;-79
2022/04/06 09:43:56;;;;;;;11.70;10.60;;;10.90;99.90;;;;;;5099469;28;20851;-80
2022/04/06 09:49:13;;;;;;;14.10;11.20;;;11.00;99.90;;;;;;5099377;28;20435;-80
2022/04/06 09:51:44;;;;;;;11.40;10.20;;;11.00;99.90;;;;;;5099706;28;20467;-79
2022/04/06 09:54:14;;;;;;;12.07;10.87;;;11.00;99.90;;;;;;5099542;28;20440;-80
2022/04/06 09:56:44;;;;;;;14.50;11.60;;;11.00;99.90;;;;;;5099451;28;20448;-79
2022/04/06 09:59:15;;;;;;;14.33;12.63;;;11.00;99.90;;;;;;5098105;28;20476;-79
2022/04/06 10:01:48;;;;;;;12.20;11.10;;;11.00;99.90;;;;;;5097592;28;20452;-80
2022/04/06 10:04:25;;;;;;;13.90;11.47;;;11.00;99.90;;;;;;5097132;28;20436;-80
2022/04/06 10:06:53;;;;;;;13.10;11.77;;;11.10;99.90;;;;;;5096755;28;20463;-79
2022/04/06 10:09:26;;;;;;;12.30;11.20;;;11.20;99.90;;;;;;5096520;28;20548;-79
2022/04/06 10:11:57;;;;;;;13.17;10.67;;;11.30;99.90;;;;;;5097445;28;20460;-78
2022/04/06 10:14:29;;;;;;;11.50;9.93;;;11.40;99.90;;;;;;5098087;28;20416;-80
2022/04/06 10:16:58;;;;;;;12.27;10.97;;;11.50;99.90;;;;;;5096260;28;20476;-78
2022/04/06 10:19:33;;;;;;;10.33;9.33;;;11.50;99.90;;;;;;5096229;28;20486;-79
2022/04/06 10:22:06;;;;;;;10.30;9.40;;;11.60;99.90;;;;;;5096229;28;20436;-79
2022/04/06 10:24:46;;;;;;;12.73;10.17;;;11.60;99.90;;;;;;5095498;28;20451;-79
2022/04/06 10:27:21;;;;;;;10.80;9.80;;;11.60;99.90;;;;;;5095514;28;20444;-78
2022/04/06 10:30:10;;;;;;;11.90;9.97;;;11.60;99.90;;;;;;5096725;28;20432;-78
2022/04/06 10:32:40;;;;;;;11.33;10.23;;;11.60;99.90;;;;;;5098798;28;20557;-80
2022/04/06 10:35:26;;;;;;;13.87;9.80;;;11.50;99.90;;;;;;5096727;28;20475;-80
2022/04/06 10:38:19;;;;;;;11.43;9.23;;;11.60;99.90;;;;;;5095791;28;20460;-79
2022/04/06 10:41:07;;;;;;;12.40;9.83;;;11.50;99.90;;;;;;5094864;28;20475;-78
2022/04/06 10:43:58;;;;;;;12.87;11.47;;;11.60;99.90;;;;;;5094261;28;20477;-79
2022/04/06 10:46:39;;;;;;;11.70;9.90;;;11.60;99.90;;;;;;5095782;28;20471;-78
2022/04/06 10:49:15;;;;;;;10.23;9.20;;;11.50;99.90;;;;;;5094824;28;20440;-78
2022/04/06 10:51:46;;;;;;;11.07;9.97;;;11.60;99.90;;;;;;5095848;28;20447;-80
2022/04/06 10:54:40;;;;;;;12.60;9.53;;;11.60;99.90;;;;;;5096397;28;20931;-79
2022/04/06 10:57:08;;;;;;;10.23;9.13;;;11.50;99.90;;;;;;5095636;28;20502;-79
2022/04/06 10:59:36;;;;;;;10.60;9.50;;;11.60;99.90;;;;;;5095219;28;20451;-79
2022/04/06 11:02:25;;;;;;;11.33;9.27;;;11.50;99.90;;;;;;5092946;28;20455;-78
2022/04/06 11:04:54;;;;;;;11.60;10.40;;;11.50;99.90;;;;;;5096914;28;20424;-79
2022/04/06 11:10:30;;;;;;;9.90;8.97;;;11.60;99.90;;;;;;5096924;28;20993;-78
2022/04/06 11:13:00;;;;;;;14.13;8.97;;;11.60;99.90;;;;;;5095302;28;20459;-78
2022/04/06 11:15:37;;;;;;;9.63;8.83;;;11.60;99.90;;;;;;5097247;28;20551;-79
2022/04/06 11:18:47;;;;;;;10.17;8.30;;;11.60;99.90;;;;;;5098279;28;20447;-78
2022/04/06 11:21:17;;;;;;;10.13;9.00;;;11.60;99.90;;;;;;5101052;28;20462;-79
2022/04/06 11:23:45;;;;;;;10.50;8.40;;;11.60;99.90;;;;;;5099134;28;21010;-79
2022/04/06 11:26:14;;;;;;;10.67;8.77;;;11.60;99.90;;;;;;5098598;28;20491;-78
2022/04/06 11:28:42;;;;;;;9.33;8.33;;;11.60;99.90;;;;;;5099768;28;20460;-80
2022/04/06 11:31:11;;;;;;;8.30;7.60;;;11.60;99.90;;;;;;5100146;28;21025;-80
2022/04/06 11:33:42;;;;;;;9.60;8.03;;;11.60;99.90;;;;;;5098985;28;20567;-79
2022/04/06 11:36:15;;;;;;;9.00;7.73;;;11.60;99.90;;;;;;5097688;28;20973;-79
2022/04/06 11:38:43;;;;;;;8.10;7.30;;;11.60;99.90;;;;;;5098519;28;20831;-79
2022/04/06 11:41:11;;;;;;;8.30;7.50;;;11.60;99.90;;;;;;5099052;28;20480;-79
2022/04/06 11:43:42;;;;;;;10.70;7.43;;;11.60;99.90;;;;;;5099020;28;20523;-79
2022/04/06 11:46:10;;;;;;;7.87;6.57;;;11.60;99.90;;;;;;5099623;28;20474;-79
2022/04/06 11:48:41;;;;;;;7.50;6.80;;;11.60;99.90;;;;;;5097677;28;20452;-80
2022/04/06 11:51:10;;;;;;;8.47;7.50;;;11.60;99.90;;;;;;5097676;28;20444;-78
2022/04/06 11:53:38;;;;;;;6.77;6.07;;;11.60;99.90;;;;;;5098637;28;20985;-79
2022/04/06 11:56:07;;;;;;;8.03;6.50;;;11.60;99.90;;;;;;5100437;28;20460;-80
2022/04/06 11:58:37;;;;;;;8.97;6.80;;;11.60;99.90;;;;;;5098360;28;20831;-78
2022/04/06 12:01:07;;;;;;;8.07;6.40;;;11.60;99.90;;;;;;5098523;28;20945;-78
2022/04/06 12:03:38;;;;;;;8.03;7.07;;;11.50;99.90;;;;;;5097774;28;20803;-79
2022/04/06 12:06:10;;;;;;;9.10;7.57;;;11.50;99.90;;;;;;5098182;28;20551;-79
2022/04/06 12:08:40;;;;;;;6.67;6.07;;;11.50;99.90;;;;;;5098513;28;20448;-79
2022/04/06 12:11:09;;;;;;;8.50;6.93;;;11.50;99.90;;;;;;5097898;28;20464;-79
2022/04/06 12:13:39;;;;;;;8.07;6.60;;;11.50;99.90;;;;;;5098076;28;21000;-79
2022/04/06 12:16:09;;;;;;;8.03;7.23;;;11.50;99.90;;;;;;5098216;28;20555;-79
2022/04/06 12:18:40;;;;;;;8.20;7.33;;;11.50;99.90;;;;;;5099814;28;20429;-79
2022/04/06 12:21:21;;;;;;;7.67;6.80;;;11.50;99.90;;;;;;5098087;28;20444;-79
2022/04/06 12:23:51;;;;;;;8.00;7.20;;;11.60;99.90;;;;;;5097847;28;20452;-79
2022/04/06 12:26:20;;;;;;;7.70;7.00;;;11.60;99.90;;;;;;5097269;28;20924;-79
2022/04/06 12:28:49;;;;;;;7.50;6.70;;;11.50;99.90;;;;;;5098242;28;20953;-79
2022/04/06 12:31:17;;;;;;;7.97;7.17;;;11.50;99.90;;;;;;5098576;28;20456;-79
2022/04/06 12:33:47;;;;;;;8.60;7.70;;;11.50;99.90;;;;;;5097917;28;20464;-79
2022/04/06 12:36:20;;;;;;;9.50;8.60;;;11.50;99.90;;;;;;5097965;28;20482;-79
2022/04/06 12:39:01;;;;;;;7.50;6.90;;;11.50;99.90;;;;;;5097833;28;20505;-79
2022/04/06 12:41:31;;;;;;;7.20;6.67;;;11.40;99.90;;;;;;5098096;28;20858;-79
2022/04/06 12:44:02;;;;;;;6.73;6.23;;;11.40;99.90;;;;;;5097578;28;20446;-79
2022/04/06 12:46:42;;;;;;;11.47;8.13;;;11.40;99.90;;;;;;5097005;28;20476;-78
2022/04/06 12:49:25;;;;;;;7.53;6.83;;;11.40;99.90;;;;;;5097566;28;20444;-79
2022/04/06 12:52:09;;;;;;;9.20;8.33;;;11.40;99.90;;;;;;5098121;28;20852;-79
2022/04/06 12:54:39;;;;;;;7.97;7.17;;;11.40;99.90;;;;;;5097767;28;20456;-80
2022/04/06 12:57:10;;;;;;;7.00;6.40;;;11.40;99.90;;;;;;5099036;28;20547;-79
2022/04/06 12:59:41;;;;;;;8.63;7.67;;;11.40;99.90;;;;;;5097687;28;20460;-79
2022/04/06 13:02:24;;;;;;;8.30;7.57;;;11.40;99.90;;;;;;5096919;28;20436;-79
2022/04/06 13:04:54;;;;;;;7.60;6.90;;;11.40;99.90;;;;;;5097501;28;20441;-79
2022/04/06 13:07:24;;;;;;;8.60;7.80;;;11.40;99.90;;;;;;5097597;28;20527;-79
2022/04/06 13:10:09;;;;;;;7.30;6.70;;;11.40;99.90;;;;;;5095932;28;20982;-79